createdAt,value
2019-05-13T00:01:43.537Z,88.70
2019-05-13T00:04:14.282Z,89.17
2019-05-13T00:06:53.470Z,89.12
2019-05-13T00:09:14.549Z,88.45
2019-05-13T00:14:18.421Z,88.75
2019-05-13T00:16:47.704Z,88.66
2019-05-13T00:19:16.979Z,88.93
2019-05-13T00:21:46.263Z,89.47
2019-05-13T00:24:15.545Z,89.52
2019-05-13T00:26:44.832Z,89.75
2019-05-13T00:29:14.383Z,89.53
2019-05-13T00:31:43.886Z,89.30
2019-05-13T00:34:14.653Z,89.66
2019-05-13T00:36:44.665Z,89.90
2019-05-13T00:39:15.467Z,89.91
2019-05-13T00:41:45.927Z,89.62
2019-05-13T00:44:15.207Z,89.57
2019-05-13T00:47:04.423Z,90.21
2019-05-13T00:49:34.833Z,90.37
2019-05-13T00:52:04.171Z,90.30
2019-05-13T00:54:34.188Z,90.11
2019-05-13T00:57:04.555Z,90.06
2019-05-13T00:59:34.258Z,90.69
2019-05-13T01:02:05.329Z,90.37
2019-05-13T01:04:53.660Z,90.22
2019-05-13T01:10:13.220Z,90.88
2019-05-13T01:12:44.150Z,90.95
2019-05-13T01:18:14.359Z,91.65
2019-05-13T01:20:45.058Z,91.54
2019-05-13T01:23:14.394Z,91.48
2019-05-13T01:25:44.502Z,91.57
2019-05-13T01:28:14.709Z,91.27
2019-05-13T01:30:44.240Z,91.37
2019-05-13T01:33:14.394Z,91.32
2019-05-13T01:38:19.601Z,91.27
2019-05-13T01:40:48.879Z,91.72
2019-05-13T01:43:18.171Z,92.20
2019-05-13T01:45:47.474Z,91.70
2019-05-13T01:48:16.756Z,91.54
2019-05-13T01:50:46.037Z,91.63
2019-05-13T01:53:15.319Z,91.61
2019-05-13T01:55:44.591Z,91.56
2019-05-13T01:58:14.598Z,91.89
2019-05-13T02:01:05.062Z,91.95
2019-05-13T02:03:34.857Z,91.80
2019-05-13T02:06:04.139Z,91.97
2019-05-13T02:08:33.775Z,92.22
2019-05-13T02:11:04.721Z,92.59
2019-05-13T02:13:34.545Z,92.80
2019-05-13T02:16:24.466Z,92.64
2019-05-13T02:19:14.386Z,92.44
2019-05-13T02:21:44.042Z,92.52
2019-05-13T02:24:14.740Z,92.92
2019-05-13T02:26:44.042Z,93.24
2019-05-13T02:29:14.318Z,92.92
2019-05-13T02:31:51.128Z,92.83
2019-05-13T02:34:15.314Z,93.66
2019-05-13T02:36:44.628Z,93.50
2019-05-13T02:39:13.938Z,94.02
2019-05-13T02:41:43.417Z,93.71
2019-05-13T02:44:12.736Z,93.70
2019-05-13T02:46:44.355Z,93.66
2019-05-13T02:49:13.058Z,93.72
2019-05-13T02:54:34.170Z,94.05
2019-05-13T02:57:03.824Z,94.37
2019-05-13T02:59:33.595Z,94.05
2019-05-13T03:02:04.283Z,94.17
2019-05-13T03:04:34.682Z,94.29
2019-05-13T03:07:03.951Z,94.25
2019-05-13T03:09:33.217Z,93.94
2019-05-13T03:12:03.976Z,94.21
2019-05-13T03:14:33.477Z,94.42
2019-05-13T03:17:22.566Z,94.28
2019-05-13T03:20:16.499Z,94.25
2019-05-13T03:22:43.460Z,94.50
2019-05-13T03:25:13.822Z,94.54
2019-05-13T03:27:43.150Z,94.44
2019-05-13T03:30:16.464Z,94.71
2019-05-13T03:32:52.230Z,94.63
2019-05-13T03:35:16.279Z,94.70
2019-05-13T03:38:06.074Z,94.75
2019-05-13T03:43:53.280Z,94.99
2019-05-13T03:52:24.832Z,96.54
2019-05-13T03:55:33.411Z,96.98
2019-05-13T03:58:03.287Z,96.25
2019-05-13T04:00:33.804Z,95.95
2019-05-13T04:03:03.640Z,95.97
2019-05-13T04:05:34.276Z,95.82
2019-05-13T04:08:03.718Z,95.86
2019-05-13T04:13:28.107Z,95.88
2019-05-13T04:21:27.130Z,97.14
2019-05-13T04:23:56.393Z,97.06
2019-05-13T04:26:25.669Z,97.04
2019-05-13T04:28:54.970Z,96.86
2019-05-13T04:34:12.678Z,97.34
2019-05-13T04:36:43.022Z,97.28
2019-05-13T04:39:13.299Z,96.73
2019-05-13T04:41:42.699Z,96.67
2019-05-13T04:44:13.045Z,96.62
2019-05-13T04:46:43.530Z,96.42
2019-05-13T04:49:14.002Z,96.09
2019-05-13T04:51:43.421Z,95.82
2019-05-13T04:54:13.267Z,95.80
2019-05-13T04:56:43.757Z,96.27
2019-05-13T04:59:34.584Z,95.71
2019-05-13T05:02:49.501Z,95.56
2019-05-13T05:05:52.781Z,95.68
2019-05-13T05:12:22.932Z,95.04
2019-05-13T05:15:32.262Z,94.60
2019-05-13T05:18:38.612Z,94.28
2019-05-13T05:24:57.026Z,92.95
2019-05-13T05:31:23.087Z,92.16
2019-05-13T05:34:32.197Z,92.08
2019-05-13T05:37:43.853Z,91.73
2019-05-13T05:40:27.093Z,91.44
2019-05-13T05:43:23.478Z,91.20
2019-05-13T05:52:08.609Z,88.17
2019-05-13T05:55:17.304Z,87.82
2019-05-13T05:58:25.926Z,86.70
2019-05-13T06:04:12.617Z,86.40
2019-05-13T06:09:43.144Z,86.14
2019-05-13T06:12:52.357Z,85.89
2019-05-13T06:15:22.766Z,85.29
2019-05-13T06:20:41.830Z,85.00
2019-05-13T06:23:11.610Z,84.79
2019-05-13T06:25:42.937Z,83.56
2019-05-13T06:28:13.444Z,83.58
2019-05-13T06:30:42.763Z,82.39
2019-05-13T06:33:51.617Z,80.70
2019-05-13T06:36:22.130Z,79.99
2019-05-13T06:41:26.532Z,78.34
2019-05-13T06:43:55.829Z,78.60
2019-05-13T06:46:44.163Z,77.02
2019-05-13T06:49:13.495Z,77.19
2019-05-13T06:52:02.106Z,76.63
2019-05-13T06:54:33.172Z,76.13
2019-05-13T06:59:52.419Z,73.82
2019-05-13T07:02:21.949Z,73.36
2019-05-13T07:04:51.784Z,73.12
2019-05-13T07:07:42.349Z,70.71
2019-05-13T07:10:12.817Z,71.82
2019-05-13T07:13:02.370Z,71.68
2019-05-13T07:18:21.948Z,68.61
2019-05-13T07:20:53.172Z,69.18
2019-05-13T07:23:23.576Z,69.64
2019-05-13T07:25:52.860Z,67.50
2019-05-13T07:28:22.157Z,69.25
2019-05-13T07:30:51.737Z,65.30
2019-05-13T07:33:22.473Z,67.67
2019-05-13T07:36:12.838Z,67.12
2019-05-13T07:38:43.269Z,67.72
2019-05-13T07:41:12.546Z,66.76
2019-05-13T07:43:42.634Z,63.41
2019-05-13T07:46:12.895Z,64.84
2019-05-13T07:48:42.137Z,65.46
2019-05-13T07:51:12.076Z,63.30
2019-05-13T07:53:42.711Z,62.06
2019-05-13T07:56:13.466Z,57.78
2019-05-13T07:58:42.752Z,56.15
2019-05-13T08:01:12.435Z,56.02
2019-05-13T08:03:43.028Z,56.92
2019-05-13T08:06:12.305Z,57.47
2019-05-13T08:08:41.849Z,56.72
2019-05-13T08:11:12.918Z,55.37
2019-05-13T08:13:44.557Z,53.04
2019-05-13T08:16:14.606Z,54.48
2019-05-13T08:18:44.016Z,52.75
2019-05-13T08:21:13.250Z,51.66
2019-05-13T08:23:42.530Z,53.13
2019-05-13T08:26:12.522Z,50.72
2019-05-13T08:29:05.582Z,50.59
2019-05-13T08:31:32.979Z,49.09
2019-05-13T08:34:02.718Z,49.82
2019-05-13T08:36:33.722Z,52.48
2019-05-13T08:39:03.248Z,50.15
2019-05-13T08:41:32.524Z,52.04
2019-05-13T08:44:02.072Z,46.92
2019-05-13T08:46:32.221Z,49.92
2019-05-13T08:49:03.818Z,51.32
2019-05-13T08:51:34.827Z,50.41
2019-05-13T08:54:04.757Z,49.86
2019-05-13T08:56:34.080Z,49.12
2019-05-13T08:59:03.518Z,50.07
2019-05-13T09:01:32.881Z,50.02
2019-05-13T09:04:02.809Z,45.10
2019-05-13T09:06:44.288Z,44.25
2019-05-13T09:09:13.649Z,46.53
2019-05-13T09:11:42.978Z,42.59
2019-05-13T09:14:12.354Z,46.05
2019-05-13T09:16:42.023Z,46.78
2019-05-13T09:19:16.087Z,47.45
2019-05-13T09:21:43.699Z,43.28
2019-05-13T09:24:24.614Z,40.39
2019-05-13T09:26:44.016Z,46.25
2019-05-13T09:29:13.264Z,44.27
2019-05-13T09:31:42.589Z,46.14
2019-05-13T09:34:12.369Z,45.34
2019-05-13T09:36:42.898Z,45.77
2019-05-13T09:39:12.792Z,47.65
2019-05-13T09:42:02.846Z,43.64
2019-05-13T09:47:34.750Z,48.05
2019-05-13T09:50:04.784Z,46.95
2019-05-13T09:52:39.270Z,48.27
2019-05-13T09:55:24.419Z,49.63
2019-05-13T09:57:37.570Z,48.67
2019-05-13T10:03:16.040Z,49.59
2019-05-13T10:05:45.355Z,50.04
2019-05-13T10:08:14.655Z,48.24
2019-05-13T10:10:43.943Z,48.28
2019-05-13T10:13:32.217Z,49.70
2019-05-13T10:16:01.634Z,48.13
2019-05-13T10:18:32.659Z,51.26
2019-05-13T10:21:42.055Z,51.68
2019-05-13T10:24:12.702Z,50.69
2019-05-13T10:26:43.444Z,53.21
2019-05-13T10:32:07.394Z,54.57
2019-05-13T10:40:33.098Z,53.00
2019-05-13T10:43:02.435Z,52.22
2019-05-13T10:45:33.188Z,44.81
2019-05-13T10:48:03.028Z,44.80
2019-05-13T10:50:53.192Z,44.98
2019-05-13T10:53:23.729Z,45.76
2019-05-13T10:56:12.014Z,40.40
2019-05-13T10:58:43.040Z,43.66
2019-05-13T11:01:12.344Z,38.84
2019-05-13T11:03:42.797Z,39.49
2019-05-13T11:06:12.657Z,35.26
2019-05-13T11:08:42.444Z,38.90
2019-05-13T11:11:13.633Z,38.55
2019-05-13T11:13:54.507Z,39.96
2019-05-13T11:16:15.024Z,41.17
2019-05-13T11:18:44.298Z,38.92
2019-05-13T11:21:13.600Z,39.59
2019-05-13T11:23:42.881Z,39.55
2019-05-13T11:26:12.888Z,40.87
2019-05-13T11:28:43.175Z,40.48
2019-05-13T11:31:12.445Z,43.30
2019-05-13T11:33:42.477Z,40.18
2019-05-13T11:36:18.518Z,40.46
2019-05-13T11:38:43.878Z,41.75
2019-05-13T11:41:13.186Z,38.79
2019-05-13T11:43:42.669Z,41.32
2019-05-13T11:46:11.962Z,41.48
2019-05-13T11:48:42.507Z,38.00
2019-05-13T11:51:13.036Z,40.28
2019-05-13T11:53:43.294Z,37.83
2019-05-13T11:56:12.600Z,35.44
2019-05-13T11:58:43.079Z,37.59
2019-05-13T12:01:13.169Z,36.59
2019-05-13T12:03:43.491Z,35.30
2019-05-13T12:06:13.916Z,34.04
2019-05-13T12:08:55.594Z,33.63
2019-05-13T12:11:25.011Z,35.14
2019-05-13T12:14:37.184Z,32.88
2019-05-13T12:16:44.257Z,34.30
2019-05-13T12:19:13.528Z,36.32
2019-05-13T12:21:46.414Z,36.38
2019-05-13T12:24:25.017Z,35.14
2019-05-13T12:26:54.310Z,35.34
2019-05-13T12:29:23.572Z,35.97
2019-05-13T12:31:52.996Z,35.97
2019-05-13T12:34:22.994Z,35.36
2019-05-13T12:36:53.374Z,36.24
2019-05-13T12:41:54.085Z,36.74
2019-05-13T12:44:24.749Z,35.39
2019-05-13T12:47:14.714Z,34.88
2019-05-13T12:49:44.225Z,34.71
2019-05-13T12:52:15.029Z,35.55
2019-05-13T12:54:44.638Z,36.00
2019-05-13T12:57:16.423Z,30.79
2019-05-13T12:59:46.324Z,31.99
2019-05-13T13:02:15.617Z,30.36
2019-05-13T13:08:16.018Z,28.80
2019-05-13T13:10:24.513Z,33.35
2019-05-13T13:12:54.948Z,33.65
2019-05-13T13:15:36.826Z,33.29
2019-05-13T13:17:55.877Z,31.38
2019-05-13T13:20:25.324Z,31.33
2019-05-13T13:22:54.608Z,32.10
2019-05-13T13:25:24.151Z,32.29
2019-05-13T13:28:09.852Z,35.73
2019-05-13T13:30:26.059Z,34.67
2019-05-13T13:32:55.336Z,32.88
2019-05-13T13:35:24.632Z,32.10
2019-05-13T13:37:53.922Z,31.82
2019-05-13T13:46:06.803Z,32.88
2019-05-13T13:48:36.169Z,32.25
2019-05-13T13:51:05.550Z,29.84
2019-05-13T13:53:34.880Z,30.19
2019-05-13T13:56:04.175Z,32.55
2019-05-13T14:01:26.950Z,31.98
2019-05-13T14:03:53.297Z,30.60
2019-05-13T14:06:33.067Z,38.46
2019-05-13T14:11:44.966Z,30.06
2019-05-13T14:14:14.364Z,31.46
2019-05-13T14:16:46.671Z,30.93
2019-05-13T14:19:14.732Z,30.21
2019-05-13T14:21:44.021Z,32.67
2019-05-13T14:24:33.096Z,30.98
2019-05-13T14:27:03.434Z,32.74
2019-05-13T14:29:40.491Z,31.85
2019-05-13T14:32:04.082Z,31.98
2019-05-13T14:34:33.555Z,30.55
2019-05-13T14:37:02.851Z,30.50
2019-05-13T14:39:33.215Z,31.50
2019-05-13T14:42:03.177Z,32.02
2019-05-13T14:44:32.640Z,31.05
2019-05-13T14:47:02.074Z,33.14
2019-05-13T14:52:22.087Z,32.08
2019-05-13T14:57:32.258Z,31.52
2019-05-13T15:00:02.809Z,31.78
2019-05-13T15:02:35.937Z,31.45
2019-05-13T15:05:05.599Z,30.80
2019-05-13T15:07:35.036Z,29.82
2019-05-13T15:10:04.742Z,30.80
2019-05-13T15:12:34.167Z,31.55
2019-05-13T15:15:03.533Z,31.76
2019-05-13T15:20:48.879Z,31.95
2019-05-13T15:23:18.547Z,30.89
2019-05-13T15:26:08.260Z,31.20
2019-05-13T15:28:37.545Z,30.21
2019-05-13T15:31:46.156Z,32.88
2019-05-13T15:34:15.461Z,31.25
2019-05-13T15:36:51.822Z,32.86
2019-05-13T15:39:42.583Z,31.37
2019-05-13T15:42:12.020Z,32.05
2019-05-13T15:44:41.425Z,32.84
2019-05-13T15:47:22.873Z,31.98
2019-05-13T15:49:41.710Z,32.23
2019-05-13T15:52:11.730Z,32.80
2019-05-13T15:54:42.006Z,31.82
2019-05-13T15:57:31.971Z,31.51
2019-05-13T16:00:02.030Z,30.62
2019-05-13T16:05:20.524Z,31.92
2019-05-13T16:07:51.683Z,30.24
2019-05-13T16:10:20.826Z,31.15
2019-05-13T16:12:51.803Z,30.42
2019-05-13T16:15:21.816Z,32.15
2019-05-13T16:17:52.294Z,32.96
2019-05-13T16:20:21.587Z,32.87
2019-05-13T16:22:52.703Z,32.69
2019-05-13T16:25:21.899Z,31.29
2019-05-13T16:27:52.059Z,31.17
2019-05-13T16:33:17.599Z,31.11
2019-05-13T16:35:46.983Z,32.61
2019-05-13T16:38:16.281Z,33.78
2019-05-13T16:40:45.571Z,32.70
2019-05-13T16:43:15.792Z,32.30
2019-05-13T16:45:45.089Z,32.54
2019-05-13T16:48:14.421Z,32.89
2019-05-13T16:50:43.758Z,32.57
2019-05-13T16:53:13.052Z,32.51
2019-05-13T16:55:42.361Z,32.67
2019-05-13T16:58:12.604Z,32.79
2019-05-13T17:00:42.735Z,32.88
2019-05-13T17:05:51.423Z,34.47
2019-05-13T17:08:22.140Z,34.57
2019-05-13T17:10:51.637Z,34.32
2019-05-13T17:13:22.095Z,32.13
2019-05-13T17:15:52.312Z,33.07
2019-05-13T17:18:23.079Z,32.61
2019-05-13T17:20:52.359Z,32.41
2019-05-13T17:23:21.663Z,33.85
2019-05-13T17:26:11.631Z,33.26
2019-05-13T17:28:41.671Z,33.74
2019-05-13T17:34:01.455Z,34.77
2019-05-13T17:36:32.522Z,34.79
2019-05-13T17:39:02.666Z,34.27
2019-05-13T17:41:32.233Z,34.28
2019-05-13T17:44:02.485Z,32.67
2019-05-13T17:49:08.702Z,33.88
2019-05-13T17:51:57.027Z,34.66
2019-05-13T17:54:45.293Z,34.92
2019-05-13T17:57:14.694Z,35.74
2019-05-13T17:59:43.995Z,38.77
2019-05-13T18:02:13.271Z,40.04
2019-05-13T18:04:42.663Z,40.21
2019-05-13T18:07:12.334Z,40.35
2019-05-13T18:09:43.054Z,40.82
2019-05-13T18:12:12.425Z,41.19
2019-05-13T18:14:41.751Z,41.45
2019-05-13T18:17:12.560Z,41.41
2019-05-13T18:19:42.342Z,40.49
2019-05-13T18:22:11.724Z,39.47
2019-05-13T18:24:41.033Z,39.93
2019-05-13T18:27:12.262Z,39.76
2019-05-13T18:29:42.008Z,40.90
2019-05-13T18:32:12.601Z,40.50
2019-05-13T18:34:42.043Z,40.88
2019-05-13T18:37:31.582Z,41.19
2019-05-13T18:40:02.514Z,41.82
2019-05-13T18:42:32.377Z,41.83
2019-05-13T18:45:02.379Z,42.41
2019-05-13T18:47:32.768Z,42.29
2019-05-13T18:50:02.559Z,42.68
2019-05-13T18:52:33.103Z,42.72
2019-05-13T18:55:02.438Z,43.08
2019-05-13T18:57:32.006Z,43.31
2019-05-13T19:00:02.805Z,43.58
2019-05-13T19:02:32.192Z,43.24
2019-05-13T19:05:01.644Z,43.71
2019-05-13T19:07:31.580Z,43.99
2019-05-13T19:10:02.651Z,44.26
2019-05-13T19:12:33.019Z,44.75
2019-05-13T19:15:02.614Z,44.79
2019-05-13T19:17:36.207Z,45.12
2019-05-13T19:20:04.690Z,45.32
2019-05-13T19:22:34.103Z,45.50
2019-05-13T19:25:03.594Z,45.63
2019-05-13T19:27:33.455Z,45.77
2019-05-13T19:30:02.758Z,46.80
2019-05-13T19:32:32.467Z,46.91
2019-05-13T19:35:03.172Z,47.66
2019-05-13T19:37:32.530Z,48.05
2019-05-13T19:40:02.245Z,48.68
2019-05-13T19:42:31.566Z,49.30
2019-05-13T19:47:51.689Z,50.22
2019-05-13T19:50:22.407Z,50.69
2019-05-13T19:52:51.904Z,50.84
2019-05-13T19:55:22.406Z,51.34
2019-05-13T19:57:51.904Z,51.78
2019-05-13T20:00:21.745Z,52.24
2019-05-13T20:02:51.036Z,52.66
2019-05-13T20:05:21.191Z,53.11
2019-05-13T20:10:42.153Z,53.91
2019-05-13T20:13:11.332Z,54.66
2019-05-13T20:15:41.912Z,54.49
2019-05-13T20:18:12.138Z,55.23
2019-05-13T20:20:42.248Z,55.05
2019-05-13T20:23:12.038Z,56.02
2019-05-13T20:25:42.570Z,56.27
2019-05-13T20:28:11.901Z,56.94
2019-05-13T20:30:42.147Z,57.21
2019-05-13T20:33:12.266Z,57.25
2019-05-13T20:35:42.151Z,57.53
2019-05-13T20:38:12.595Z,57.79
2019-05-13T20:40:41.877Z,57.77
2019-05-13T20:43:11.845Z,57.98
2019-05-13T20:45:42.153Z,58.79
2019-05-13T20:48:12.365Z,59.44
2019-05-13T20:51:02.610Z,59.89
2019-05-13T20:53:31.710Z,59.89
2019-05-13T20:56:01.845Z,59.63
2019-05-13T20:58:32.484Z,59.36
2019-05-13T21:04:12.382Z,59.65
2019-05-13T21:06:42.221Z,59.57
2019-05-13T21:09:16.789Z,60.45
2019-05-13T21:11:43.443Z,60.96
2019-05-13T21:14:12.732Z,61.00
2019-05-13T21:16:42.093Z,61.40
2019-05-13T21:19:12.366Z,61.06
2019-05-13T21:21:42.403Z,61.52
2019-05-13T21:24:11.701Z,61.41
2019-05-13T21:26:42.025Z,61.98
2019-05-13T21:29:11.994Z,61.80
2019-05-13T21:31:41.560Z,62.06
2019-05-13T21:34:12.308Z,62.03
2019-05-13T21:36:41.619Z,61.91
2019-05-13T21:39:12.393Z,61.90
2019-05-13T21:41:41.943Z,62.00
2019-05-13T21:44:11.987Z,62.93
2019-05-13T21:46:42.264Z,62.95
2019-05-13T21:49:12.063Z,63.23
2019-05-13T21:51:42.560Z,63.13
2019-05-13T21:54:12.043Z,62.93
2019-05-13T21:56:42.617Z,63.25
2019-05-13T21:59:12.271Z,63.18
2019-05-13T22:02:01.583Z,63.28
2019-05-13T22:04:31.589Z,63.84
2019-05-13T22:07:01.528Z,63.97
2019-05-13T22:09:32.094Z,63.90
2019-05-13T22:12:01.968Z,64.08
2019-05-13T22:14:51.815Z,64.23
2019-05-13T22:17:22.484Z,64.57
2019-05-13T22:22:41.547Z,64.78
2019-05-13T22:27:46.128Z,65.58
2019-05-13T22:33:12.305Z,65.38
2019-05-13T22:35:41.751Z,65.31
2019-05-13T22:38:12.499Z,65.74
2019-05-13T22:40:43.280Z,65.66
2019-05-13T22:43:12.574Z,66.38
2019-05-13T22:45:42.228Z,66.55
2019-05-13T22:48:14.938Z,66.47
2019-05-13T22:53:20.981Z,66.27
2019-05-13T22:55:51.969Z,66.31
2019-05-13T22:58:22.550Z,66.52
2019-05-13T23:00:51.893Z,66.68
2019-05-13T23:03:21.216Z,66.86
2019-05-13T23:05:52.196Z,68.26
2019-05-13T23:08:21.804Z,67.79
2019-05-13T23:10:51.559Z,67.41
2019-05-13T23:13:22.082Z,67.39
2019-05-13T23:15:51.703Z,67.86
2019-05-13T23:18:22.397Z,68.37
2019-05-13T23:20:51.748Z,68.32
2019-05-13T23:23:22.175Z,69.32
2019-05-13T23:25:52.039Z,68.75
2019-05-13T23:28:21.707Z,69.18
2019-05-13T23:30:52.508Z,69.04
2019-05-13T23:33:22.107Z,69.55
2019-05-13T23:35:52.888Z,69.72
2019-05-13T23:38:41.516Z,75.04
2019-05-13T23:41:11.426Z,72.15
2019-05-13T23:43:41.842Z,71.01
2019-05-13T23:46:11.744Z,70.99
2019-05-13T23:48:42.541Z,70.48
2019-05-13T23:51:13.023Z,70.64
2019-05-13T23:53:42.821Z,70.58
2019-05-13T23:56:12.117Z,71.23
2019-05-13T23:58:41.541Z,72.30
